createdAt,value
2023-03-11T00:00:49.330Z,10.09
2023-03-11T00:03:27.819Z,10.13
2023-03-11T00:05:56.741Z,10.14
2023-03-11T00:08:25.691Z,10.13
2023-03-11T00:10:56.334Z,9.98
2023-03-11T00:13:24.995Z,9.98
2023-03-11T00:15:56.436Z,9.87
2023-03-11T00:18:27.249Z,9.79
2023-03-11T00:20:56.928Z,9.75
2023-03-11T00:23:27.071Z,9.67
2023-03-11T00:25:55.859Z,9.54
2023-03-11T00:28:26.770Z,9.36
2023-03-11T00:30:55.450Z,9.16
2023-03-11T00:33:24.426Z,9.22
2023-03-11T00:35:52.645Z,9.25
2023-03-11T00:38:23.018Z,9.24
2023-03-11T00:40:51.591Z,9.26
2023-03-11T00:43:19.696Z,9.24
2023-03-11T00:45:47.976Z,9.24
2023-03-11T00:48:16.728Z,9.27
2023-03-11T00:50:45.520Z,9.30
2023-03-11T00:53:13.747Z,9.30
2023-03-11T00:55:42.071Z,9.33
2023-03-11T00:58:13.505Z,9.35
2023-03-11T01:00:45.545Z,9.35
2023-03-11T01:03:13.755Z,9.22
2023-03-11T01:05:41.967Z,9.09
2023-03-11T01:08:10.288Z,9.06
2023-03-11T01:10:38.686Z,9.07
2023-03-11T01:13:06.841Z,9.07
2023-03-11T01:15:37.272Z,9.03
2023-03-11T01:18:07.794Z,8.91
2023-03-11T01:20:38.452Z,8.83
2023-03-11T01:23:08.595Z,8.92
2023-03-11T01:25:37.350Z,9.02
2023-03-11T01:28:08.454Z,9.10
2023-03-11T01:30:38.960Z,9.18
2023-03-11T01:33:09.494Z,9.26
2023-03-11T01:35:40.163Z,9.36
2023-03-11T01:38:08.567Z,9.44
2023-03-11T01:40:49.077Z,9.50
2023-03-11T01:43:37.449Z,9.53
2023-03-11T01:46:15.681Z,9.58
2023-03-11T01:48:57.413Z,9.66
2023-03-11T01:51:30.004Z,9.73
2023-03-11T01:54:04.160Z,9.76
2023-03-11T01:56:33.763Z,9.83
2023-03-11T01:59:02.608Z,9.90
2023-03-11T02:01:30.962Z,9.90
2023-03-11T02:04:02.883Z,9.88
2023-03-11T02:06:32.915Z,9.85
2023-03-11T02:09:01.680Z,9.76
2023-03-11T02:11:31.181Z,9.74
2023-03-11T02:14:04.691Z,9.75
2023-03-11T02:16:33.454Z,9.78
2023-03-11T02:19:21.294Z,9.86
2023-03-11T02:21:51.754Z,9.92
2023-03-11T02:24:31.808Z,9.94
2023-03-11T02:27:03.515Z,9.96
2023-03-11T02:29:34.162Z,9.97
2023-03-11T02:32:07.208Z,9.95
2023-03-11T02:34:38.719Z,9.92
2023-03-11T02:37:10.192Z,9.88
2023-03-11T02:40:04.972Z,9.86
2023-03-11T02:42:33.483Z,9.82
2023-03-11T02:45:08.263Z,9.77
2023-03-11T02:47:39.154Z,9.74
2023-03-11T02:50:12.104Z,9.75
2023-03-11T02:52:40.404Z,9.76
2023-03-11T02:55:12.017Z,9.76
2023-03-11T02:57:41.036Z,9.76
2023-03-11T03:00:14.508Z,9.77
2023-03-11T03:02:45.986Z,9.79
2023-03-11T03:05:14.959Z,9.81
2023-03-11T03:07:43.860Z,9.83
2023-03-11T03:10:12.446Z,9.85
2023-03-11T03:12:40.802Z,9.87
2023-03-11T03:15:11.988Z,9.87
2023-03-11T03:17:40.275Z,9.87
2023-03-11T03:20:11.817Z,9.86
2023-03-11T03:22:42.537Z,9.85
2023-03-11T03:25:11.688Z,9.83
2023-03-11T03:27:40.354Z,9.82
2023-03-11T03:30:10.541Z,9.81
2023-03-11T03:32:39.576Z,9.79
2023-03-11T03:35:10.536Z,9.78
2023-03-11T03:38:01.977Z,9.76
2023-03-11T03:40:30.854Z,9.75
2023-03-11T03:43:00.585Z,9.75
2023-03-11T03:45:29.376Z,9.74
2023-03-11T03:47:57.761Z,9.73
2023-03-11T03:50:26.406Z,9.72
2023-03-11T03:52:55.843Z,9.71
2023-03-11T03:55:24.966Z,9.70
2023-03-11T03:57:53.937Z,9.70
2023-03-11T04:00:24.049Z,9.71
2023-03-11T04:02:55.890Z,9.74
2023-03-11T04:05:29.536Z,9.75
2023-03-11T04:07:58.295Z,9.74
2023-03-11T04:10:26.576Z,9.74
2023-03-11T04:12:55.847Z,9.72
2023-03-11T04:15:24.706Z,9.71
2023-03-11T04:17:54.049Z,9.70
2023-03-11T04:20:22.513Z,9.68
2023-03-11T04:22:51.845Z,9.66
2023-03-11T04:25:20.668Z,9.65
2023-03-11T04:27:50.290Z,9.64
2023-03-11T04:30:18.995Z,9.65
2023-03-11T04:32:48.464Z,9.65
2023-03-11T04:35:17.635Z,9.65
2023-03-11T04:37:46.423Z,9.66
2023-03-11T04:40:15.401Z,9.68
2023-03-11T04:42:43.787Z,9.69
2023-03-11T04:45:13.289Z,9.70
2023-03-11T04:47:44.078Z,9.72
2023-03-11T04:50:12.329Z,9.74
2023-03-11T04:52:43.475Z,9.78
2023-03-11T04:55:13.931Z,9.84
2023-03-11T04:57:44.027Z,9.92
2023-03-11T05:00:15.854Z,9.95
2023-03-11T05:02:46.829Z,9.98
2023-03-11T05:05:15.282Z,10.07
2023-03-11T05:07:44.832Z,10.23
2023-03-11T05:10:14.068Z,10.41
2023-03-11T05:12:42.284Z,10.64
2023-03-11T05:15:10.924Z,10.81
2023-03-11T05:17:39.160Z,10.80
2023-03-11T05:20:09.948Z,10.96
2023-03-11T05:22:38.502Z,11.10
2023-03-11T05:25:07.468Z,11.19
2023-03-11T05:27:35.869Z,11.48
2023-03-11T05:30:06.705Z,12.16
2023-03-11T05:32:36.136Z,12.99
2023-03-11T05:35:05.191Z,13.74
2023-03-11T05:37:35.378Z,14.18
2023-03-11T05:40:06.956Z,14.35
2023-03-11T05:42:36.720Z,15.03
2023-03-11T05:45:05.456Z,15.60
2023-03-11T05:47:34.251Z,16.24
2023-03-11T05:50:03.784Z,17.01
2023-03-11T05:52:34.010Z,17.67
2023-03-11T05:55:02.357Z,18.15
2023-03-11T05:57:31.277Z,18.53
2023-03-11T06:00:00.725Z,18.81
2023-03-11T06:02:29.797Z,18.71
2023-03-11T06:04:57.994Z,18.63
2023-03-11T06:07:26.380Z,18.27
2023-03-11T06:09:54.601Z,17.64
2023-03-11T06:12:24.073Z,17.45
2023-03-11T06:15:15.319Z,17.44
2023-03-11T06:17:44.273Z,17.56
2023-03-11T06:20:13.932Z,17.55
2023-03-11T06:22:42.727Z,17.68
2023-03-11T06:25:11.368Z,17.83
2023-03-11T06:27:40.098Z,17.89
2023-03-11T06:30:10.457Z,18.18
2023-03-11T06:32:46.538Z,18.32
2023-03-11T06:35:15.260Z,18.45
2023-03-11T06:37:46.450Z,18.22
2023-03-11T06:40:14.626Z,18.04
2023-03-11T06:42:47.608Z,17.53
2023-03-11T06:45:15.951Z,17.31
2023-03-11T06:47:44.481Z,17.31
2023-03-11T06:50:12.993Z,17.03
2023-03-11T06:52:41.169Z,16.69
2023-03-11T06:55:10.019Z,16.32
2023-03-11T06:57:38.334Z,16.02
2023-03-11T07:00:12.618Z,15.71
2023-03-11T07:02:51.557Z,15.30
2023-03-11T07:05:20.116Z,14.98
2023-03-11T07:07:48.907Z,14.73
2023-03-11T07:10:17.105Z,14.47
2023-03-11T07:12:45.220Z,14.30
2023-03-11T07:15:14.352Z,14.20
2023-03-11T07:17:42.876Z,14.05
2023-03-11T07:20:12.009Z,13.95
2023-03-11T07:22:40.248Z,13.82
2023-03-11T07:25:08.565Z,13.72
2023-03-11T07:27:36.691Z,13.69
2023-03-11T07:30:05.056Z,13.63
2023-03-11T07:32:33.501Z,13.63
2023-03-11T07:35:01.558Z,13.61
2023-03-11T07:37:29.717Z,13.68
2023-03-11T07:39:58.084Z,13.75
2023-03-11T07:42:26.259Z,13.92
2023-03-11T07:44:55.447Z,14.07
2023-03-11T07:47:24.958Z,14.16
2023-03-11T07:49:53.077Z,14.15
2023-03-11T07:52:21.743Z,14.17
2023-03-11T07:54:50.524Z,14.21
2023-03-11T07:57:18.698Z,14.32
2023-03-11T07:59:46.911Z,14.43
2023-03-11T08:02:15.266Z,14.59
2023-03-11T08:04:43.562Z,14.60
2023-03-11T08:07:11.787Z,14.59
2023-03-11T08:09:39.944Z,14.54
2023-03-11T08:12:08.620Z,14.48
2023-03-11T08:14:36.954Z,14.39
2023-03-11T08:17:05.658Z,14.25
2023-03-11T08:19:33.786Z,14.15
2023-03-11T08:22:05.095Z,14.12
2023-03-11T08:24:33.507Z,14.12
2023-03-11T08:27:01.653Z,14.11
2023-03-11T08:29:29.772Z,14.09
2023-03-11T08:31:58.094Z,14.10
2023-03-11T08:34:27.748Z,14.06
2023-03-11T08:36:56.071Z,14.07
2023-03-11T08:39:24.367Z,14.05
2023-03-11T08:41:52.486Z,13.99
2023-03-11T08:44:20.587Z,13.94
2023-03-11T08:46:49.196Z,13.88
2023-03-11T08:49:17.407Z,13.90
2023-03-11T08:51:45.652Z,13.89
2023-03-11T08:54:13.804Z,13.84
2023-03-11T08:56:41.904Z,13.79
2023-03-11T08:59:10.031Z,13.76
2023-03-11T09:01:38.334Z,13.76
2023-03-11T09:04:06.858Z,13.77
2023-03-11T09:06:35.102Z,13.72
2023-03-11T09:09:04.028Z,13.66
2023-03-11T09:11:32.665Z,13.61
2023-03-11T09:14:00.705Z,13.52
2023-03-11T09:16:28.885Z,13.48
2023-03-11T09:18:57.141Z,13.47
2023-03-11T09:21:25.263Z,13.50
2023-03-11T09:23:53.541Z,13.56
2023-03-11T09:26:22.108Z,13.67
2023-03-11T09:28:50.291Z,13.78
2023-03-11T09:31:19.260Z,13.86
2023-03-11T09:33:47.806Z,13.92
2023-03-11T09:36:19.515Z,13.99
2023-03-11T09:38:48.030Z,14.00
2023-03-11T09:41:18.949Z,14.03
2023-03-11T09:43:47.054Z,14.06
2023-03-11T09:46:29.557Z,14.16
2023-03-11T09:49:10.318Z,14.20
2023-03-11T09:51:43.508Z,14.27
2023-03-11T09:54:14.120Z,14.32
2023-03-11T09:56:44.591Z,14.38
2023-03-11T09:59:24.153Z,14.40
2023-03-11T10:01:52.927Z,14.43
2023-03-11T10:04:21.252Z,14.49
2023-03-11T10:06:50.553Z,14.61
2023-03-11T10:09:43.022Z,14.74
2023-03-11T10:12:42.014Z,14.81
2023-03-11T10:15:18.070Z,14.84
2023-03-11T10:17:46.223Z,14.84
2023-03-11T10:20:41.118Z,14.86
2023-03-11T10:23:26.353Z,14.86
2023-03-11T10:26:04.613Z,14.84
2023-03-11T10:28:39.894Z,14.82
2023-03-11T10:31:33.257Z,14.82
2023-03-11T10:34:21.838Z,14.77
2023-03-11T10:36:53.212Z,14.76
2023-03-11T10:39:23.737Z,14.77
2023-03-11T10:41:59.457Z,14.80
2023-03-11T10:44:35.004Z,14.86
2023-03-11T10:47:04.440Z,14.90
2023-03-11T10:49:32.814Z,14.91
2023-03-11T10:52:04.235Z,14.89
2023-03-11T10:54:37.985Z,14.81
2023-03-11T10:57:26.620Z,14.77
2023-03-11T10:59:57.418Z,14.76
2023-03-11T11:02:27.290Z,14.75
2023-03-11T11:05:05.889Z,14.72
2023-03-11T11:07:37.589Z,14.71
2023-03-11T11:10:27.400Z,14.68
2023-03-11T11:12:59.188Z,14.61
2023-03-11T11:15:33.200Z,14.58
2023-03-11T11:18:05.392Z,14.55
2023-03-11T11:20:34.558Z,14.54
2023-03-11T11:23:04.167Z,14.50
2023-03-11T11:25:34.407Z,14.50
2023-03-11T11:28:22.760Z,14.53
2023-03-11T11:31:06.714Z,14.56
2023-03-11T11:33:50.808Z,14.60
2023-03-11T11:36:21.303Z,14.64
2023-03-11T11:38:50.939Z,14.68
2023-03-11T11:41:22.781Z,14.72
2023-03-11T11:44:01.463Z,14.74
2023-03-11T11:46:38.998Z,14.79
2023-03-11T11:49:19.291Z,14.82
2023-03-11T11:52:12.948Z,14.90
2023-03-11T11:54:49.921Z,14.95
2023-03-11T11:57:21.861Z,15.00
2023-03-11T11:59:50.783Z,15.00
2023-03-11T12:02:40.845Z,15.01
2023-03-11T12:05:35.914Z,15.04
2023-03-11T12:08:19.579Z,15.03
2023-03-11T12:10:58.190Z,15.00
2023-03-11T12:13:50.402Z,14.94
2023-03-11T12:16:40.074Z,14.84
2023-03-11T12:19:25.612Z,14.75
2023-03-11T12:21:59.674Z,14.63
2023-03-11T12:24:57.223Z,14.52
2023-03-11T12:28:00.001Z,14.40
2023-03-11T12:30:37.041Z,14.28
2023-03-11T12:33:37.095Z,14.20
2023-03-11T12:36:07.425Z,14.11
2023-03-11T12:38:47.671Z,14.05
2023-03-11T12:41:15.859Z,13.98
2023-03-11T12:43:44.127Z,13.95
2023-03-11T12:46:14.701Z,13.96
2023-03-11T12:48:46.170Z,13.97
2023-03-11T12:51:26.370Z,13.97
2023-03-11T12:53:55.672Z,13.95
2023-03-11T12:56:42.982Z,13.94
2023-03-11T12:59:48.735Z,13.94
2023-03-11T13:02:54.703Z,13.96
2023-03-11T13:05:48.069Z,13.99
2023-03-11T13:08:18.086Z,14.02
2023-03-11T13:10:49.084Z,14.01
2023-03-11T13:13:32.650Z,14.04
2023-03-11T13:16:23.827Z,14.05
2023-03-11T13:18:51.949Z,14.07
2023-03-11T13:21:31.992Z,14.08
2023-03-11T13:24:19.237Z,14.12
2023-03-11T13:26:53.371Z,14.15
2023-03-11T13:29:52.425Z,14.16
2023-03-11T13:32:54.392Z,14.18
2023-03-11T13:35:37.679Z,14.21
2023-03-11T13:38:42.850Z,14.25
2023-03-11T13:41:20.563Z,14.25
2023-03-11T13:43:51.446Z,14.27
2023-03-11T13:46:38.626Z,14.27
2023-03-11T13:49:15.155Z,14.26
2023-03-11T13:51:46.736Z,14.24
2023-03-11T13:54:15.068Z,14.23
2023-03-11T13:56:57.308Z,14.23
2023-03-11T13:59:28.875Z,14.19
2023-03-11T14:02:00.367Z,14.14
2023-03-11T14:04:31.640Z,14.11
2023-03-11T14:07:00.617Z,14.11
2023-03-11T14:09:29.154Z,14.12
2023-03-11T14:12:05.236Z,14.11
2023-03-11T14:14:55.391Z,14.08
2023-03-11T14:17:23.474Z,14.09
2023-03-11T14:20:19.230Z,14.10
2023-03-11T14:22:49.963Z,14.12
2023-03-11T14:25:31.323Z,14.13
2023-03-11T14:28:02.313Z,14.14
2023-03-11T14:30:33.453Z,14.17
2023-03-11T14:33:22.442Z,14.22
2023-03-11T14:35:57.975Z,14.27
2023-03-11T14:38:29.660Z,14.31
2023-03-11T14:41:04.525Z,14.36
2023-03-11T14:43:35.728Z,14.39
2023-03-11T14:46:06.327Z,14.42
2023-03-11T14:48:40.398Z,14.44
2023-03-11T14:51:17.945Z,14.44
2023-03-11T14:53:51.618Z,14.42
2023-03-11T14:56:25.406Z,14.39
2023-03-11T14:59:15.817Z,14.38
2023-03-11T15:01:47.305Z,14.33
2023-03-11T15:04:26.984Z,14.31
2023-03-11T15:06:56.295Z,14.25
2023-03-11T15:09:25.350Z,14.20
2023-03-11T15:11:59.503Z,14.17
2023-03-11T15:14:27.880Z,14.13
2023-03-11T15:17:08.785Z,14.06
2023-03-11T15:19:38.351Z,13.98
2023-03-11T15:22:29.237Z,13.92
2023-03-11T15:25:00.287Z,13.84
2023-03-11T15:27:37.468Z,13.79
2023-03-11T15:30:18.308Z,13.72
2023-03-11T15:32:47.035Z,13.69
2023-03-11T15:35:28.251Z,13.64
2023-03-11T15:38:31.807Z,13.58
2023-03-11T15:41:03.990Z,13.49
2023-03-11T15:43:34.306Z,13.39
2023-03-11T15:46:03.840Z,13.29
2023-03-11T15:48:33.497Z,13.21
2023-03-11T15:51:01.928Z,13.10
2023-03-11T15:53:31.145Z,13.02
2023-03-11T15:56:07.801Z,12.91
2023-03-11T15:58:38.527Z,12.80
2023-03-11T16:01:06.656Z,12.69
2023-03-11T16:03:36.652Z,12.57
2023-03-11T16:06:05.021Z,12.48
2023-03-11T16:08:33.115Z,12.39
2023-03-11T16:11:01.257Z,12.30
2023-03-11T16:13:29.439Z,12.21
2023-03-11T16:15:57.570Z,12.09
2023-03-11T16:18:25.759Z,11.96
2023-03-11T16:20:55.567Z,11.84
2023-03-11T16:23:30.801Z,11.72
2023-03-11T16:26:05.626Z,11.60
2023-03-11T16:28:33.746Z,11.50
2023-03-11T16:31:01.961Z,11.39
2023-03-11T16:33:30.504Z,11.27
2023-03-11T16:35:58.834Z,11.16
2023-03-11T16:38:27.428Z,11.05
2023-03-11T16:41:03.034Z,10.92
2023-03-11T16:43:32.479Z,10.78
2023-03-11T16:46:00.560Z,10.63
2023-03-11T16:48:28.974Z,10.49
2023-03-11T16:50:57.144Z,10.37
2023-03-11T16:53:26.397Z,10.24
2023-03-11T16:55:54.879Z,10.14
2023-03-11T16:58:23.257Z,10.05
2023-03-11T17:00:51.586Z,9.92
2023-03-11T17:03:21.821Z,9.84
2023-03-11T17:05:50.501Z,9.79
2023-03-11T17:08:18.631Z,9.73
2023-03-11T17:10:47.040Z,9.70
2023-03-11T17:13:18.422Z,9.65
2023-03-11T17:16:00.662Z,9.59
2023-03-11T17:18:29.478Z,9.51
2023-03-11T17:20:57.589Z,9.44
2023-03-11T17:23:25.834Z,9.36
2023-03-11T17:25:53.914Z,9.27
2023-03-11T17:28:22.024Z,9.20
2023-03-11T17:30:50.461Z,9.13
2023-03-11T17:33:18.534Z,9.06
2023-03-11T17:35:47.563Z,8.99
2023-03-11T17:38:16.647Z,8.94
2023-03-11T17:40:45.090Z,8.90
2023-03-11T17:43:13.146Z,8.87
2023-03-11T17:45:41.411Z,8.83
2023-03-11T17:48:09.813Z,8.82
2023-03-11T17:50:38.980Z,8.80
2023-03-11T17:53:07.618Z,8.79
2023-03-11T17:55:39.740Z,8.79
2023-03-11T17:58:08.754Z,8.78
2023-03-11T18:00:38.182Z,8.77
2023-03-11T18:03:06.425Z,8.76
2023-03-11T18:05:36.997Z,8.76
2023-03-11T18:08:05.340Z,8.78
2023-03-11T18:10:33.539Z,8.80
2023-03-11T18:13:01.679Z,8.85
2023-03-11T18:15:29.779Z,8.93
2023-03-11T18:17:58.027Z,9.02
2023-03-11T18:20:26.137Z,9.07
2023-03-11T18:22:56.070Z,9.15
2023-03-11T18:25:24.185Z,9.21
2023-03-11T18:27:52.261Z,9.24
2023-03-11T18:30:20.505Z,9.28
2023-03-11T18:32:49.654Z,9.32
2023-03-11T18:35:18.930Z,9.36
2023-03-11T18:37:47.111Z,9.40
2023-03-11T18:40:15.252Z,9.39
2023-03-11T18:42:43.388Z,9.38
2023-03-11T18:45:12.432Z,9.32
2023-03-11T18:47:40.790Z,9.23
2023-03-11T18:50:09.837Z,9.15
2023-03-11T18:52:38.068Z,9.05
2023-03-11T18:55:07.181Z,8.97
2023-03-11T18:57:35.314Z,8.86
2023-03-11T19:00:04.415Z,8.76
2023-03-11T19:02:32.621Z,8.69
2023-03-11T19:05:01.040Z,8.60
2023-03-11T19:07:29.583Z,8.49
2023-03-11T19:09:58.331Z,8.42
2023-03-11T19:12:29.408Z,8.37
2023-03-11T19:14:57.511Z,8.31
2023-03-11T19:17:25.676Z,8.21
2023-03-11T19:19:54.144Z,8.18
2023-03-11T19:22:22.323Z,8.16
2023-03-11T19:24:54.299Z,8.12
2023-03-11T19:27:22.515Z,8.10
2023-03-11T19:29:50.586Z,8.07
2023-03-11T19:32:19.007Z,8.05
2023-03-11T19:34:47.311Z,8.02
2023-03-11T19:37:17.303Z,8.00
2023-03-11T19:39:45.589Z,7.96
2023-03-11T19:42:13.869Z,7.92
2023-03-11T19:44:41.972Z,7.88
2023-03-11T19:47:10.170Z,7.86
2023-03-11T19:49:38.394Z,7.84
2023-03-11T19:52:09.968Z,7.82
2023-03-11T19:54:38.328Z,7.82
2023-03-11T19:57:06.631Z,7.79
2023-03-11T19:59:34.882Z,7.78
2023-03-11T20:02:03.555Z,7.77
2023-03-11T20:04:32.529Z,7.75
2023-03-11T20:07:00.961Z,7.73
2023-03-11T20:09:29.110Z,7.71
2023-03-11T20:11:57.233Z,7.67
2023-03-11T20:14:25.412Z,7.64
2023-03-11T20:16:54.054Z,7.62
2023-03-11T20:19:22.405Z,7.58
2023-03-11T20:21:50.541Z,7.54
2023-03-11T20:24:18.837Z,7.51
2023-03-11T20:26:48.815Z,7.49
2023-03-11T20:29:18.619Z,7.45
2023-03-11T20:31:46.888Z,7.42
2023-03-11T20:34:15.004Z,7.39
2023-03-11T20:36:43.610Z,7.35
2023-03-11T20:39:12.590Z,7.32
2023-03-11T20:41:41.528Z,7.29
2023-03-11T20:44:13.464Z,7.24
2023-03-11T20:46:42.651Z,7.20
2023-03-11T20:49:11.513Z,7.17
2023-03-11T20:51:41.749Z,7.13
2023-03-11T20:54:12.158Z,6.97
2023-03-11T20:56:40.942Z,6.89
2023-03-11T20:59:14.027Z,6.77
2023-03-11T21:01:42.517Z,6.74
2023-03-11T21:04:10.882Z,6.64
2023-03-11T21:06:41.216Z,6.54
2023-03-11T21:09:14.695Z,6.46
2023-03-11T21:11:42.902Z,6.36
2023-03-11T21:14:14.649Z,6.24
2023-03-11T21:16:45.232Z,6.14
2023-03-11T21:19:14.085Z,6.07
2023-03-11T21:21:43.274Z,6.00
2023-03-11T21:24:12.558Z,5.90
2023-03-11T21:26:41.044Z,5.82
2023-03-11T21:29:09.542Z,5.75
2023-03-11T21:31:37.768Z,5.70
2023-03-11T21:34:06.198Z,5.59
2023-03-11T21:36:34.620Z,5.54
2023-03-11T21:39:03.842Z,5.36
2023-03-11T21:41:32.212Z,5.29
2023-03-11T21:44:00.796Z,5.18
2023-03-11T21:46:32.183Z,5.08
2023-03-11T21:49:01.742Z,4.97
2023-03-11T21:51:30.232Z,4.90
2023-03-11T21:53:59.557Z,4.81
2023-03-11T21:56:28.820Z,4.66
2023-03-11T21:58:57.915Z,4.58
2023-03-11T22:01:26.411Z,4.49
2023-03-11T22:03:55.395Z,4.30
2023-03-11T22:06:24.512Z,4.28
2023-03-11T22:08:53.204Z,4.17
2023-03-11T22:11:21.422Z,4.12
2023-03-11T22:13:51.752Z,4.06
2023-03-11T22:16:21.922Z,4.01
2023-03-11T22:18:51.420Z,3.97
2023-03-11T22:21:20.938Z,3.91
2023-03-11T22:23:49.338Z,3.88
2023-03-11T22:26:17.909Z,3.83
2023-03-11T22:28:46.084Z,3.77
2023-03-11T22:31:15.670Z,3.77
2023-03-11T22:33:44.184Z,3.74
2023-03-11T22:36:12.524Z,3.72
2023-03-11T22:38:44.334Z,3.72
2023-03-11T22:41:14.639Z,3.71
2023-03-11T22:43:42.906Z,3.68
2023-03-11T22:46:11.258Z,3.66
2023-03-11T22:48:39.972Z,3.63
2023-03-11T22:51:08.665Z,3.64
2023-03-11T22:53:37.040Z,3.61
2023-03-11T22:56:16.698Z,3.64
2023-03-11T22:58:44.881Z,3.64
2023-03-11T23:01:13.766Z,3.63
2023-03-11T23:03:43.373Z,3.63
2023-03-11T23:06:15.603Z,3.64
2023-03-11T23:08:44.202Z,3.63
2023-03-11T23:11:15.853Z,3.63
2023-03-11T23:13:44.758Z,3.59
2023-03-11T23:16:24.126Z,3.59
2023-03-11T23:18:55.612Z,3.58
2023-03-11T23:21:28.240Z,3.53
2023-03-11T23:23:57.004Z,3.53
2023-03-11T23:26:25.172Z,3.51
2023-03-11T23:28:54.056Z,3.50
2023-03-11T23:31:25.023Z,3.49
2023-03-11T23:33:53.888Z,3.47
2023-03-11T23:36:27.151Z,3.47
2023-03-11T23:38:55.359Z,3.49
2023-03-11T23:41:24.095Z,3.50
2023-03-11T23:43:52.535Z,3.50
2023-03-11T23:46:20.851Z,3.49
2023-03-11T23:48:49.209Z,3.47
2023-03-11T23:51:17.660Z,3.44
2023-03-11T23:53:46.138Z,3.42
2023-03-11T23:56:17.527Z,3.41
2023-03-11T23:58:46.401Z,3.35
